This is the latest recevied weather packets stored in our database for station/object IU2EVW-13. If no packets are shown the sender has not sent any weather packets the latest 10 day(s).
| Time | Temp. | Humidity | Pressure | Rain* | Wind** | Luminosity | Snow |
|---|---|---|---|---|---|---|---|
| 1787611490 | 16.11° C | 94% | 1017.8 hPa | - | - | - | - |
| 1787610289 | 16.67° C | 94% | 1018.5 hPa | - | - | - | - |
| 1787609088 | 17.22° C | 94% | 1017.9 hPa | - | - | - | - |
| 1787607887 | 20.56° C | 59% | 1016.2 hPa | - | - | - | - |
| 1787606685 | 21.11° C | 55% | 1015.7 hPa | - | - | - | - |
| 1787605484 | 21.11° C | 56% | 1016.2 hPa | - | - | - | - |
| 1787604283 | 21.11° C | 56% | 1016.6 hPa | - | - | - | - |
| 1787603081 | 21.11° C | 58% | 1017.1 hPa | - | - | - | - |
| 1787601880 | 21.11° C | 57% | 1016.9 hPa | - | - | - | - |
| 1787600679 | 21.67° C | 55% | 1016.8 hPa | - | - | - | - |
| 1787599478 | 21.67° C | 56% | 1017.2 hPa | - | - | - | - |
| 1787598276 | 21.67° C | 55% | 1017.7 hPa | - | - | - | - |
| 1787597075 | 22.22° C | 54% | 1017.8 hPa | - | - | - | - |
| 1787595874 | 22.22° C | 55% | 1017.7 hPa | - | - | - | - |
| 1787594672 | 22.22° C | 52% | 1017.4 hPa | - | - | - | - |
| 1787593471 | 22.78° C | 53% | 1017.4 hPa | - | - | - | - |
| 1787592270 | 23.33° C | 49% | 1017.3 hPa | - | - | - | - |
| 1787591069 | 24.44° C | 45% | 1017.5 hPa | - | - | - | - |
| 1787589867 | 25.56° C | 42% | 1017.5 hPa | - | - | - | - |
| 1787588666 | 27.78° C | 38% | 1017.7 hPa | - | - | - | - |
| 1787587465 | 26.11° C | 41% | 1018.2 hPa | - | - | - | - |
| 1787586264 | 29.44° C | 33% | 1018 hPa | - | - | - | - |
| 1787585062 | 26.67° C | 40% | 1018.2 hPa | - | - | - | - |
| 1787583861 | 30.56° C | 32% | 1018.3 hPa | - | - | - | - |
| 1787582660 | 30° C | 32% | 1018.4 hPa | - | - | - | - |
* Rain since midnight (hover to see other rain measurements)
** Current wind speed in m/s (hover to see current wind gust speed)